This is the latest recevied weather packets stored in our database for station/object dl1wer-13. If no packets are shown the sender has not sent any weather packets the latest 10 day(s).
| Time | Temp. | Humidity | Pressure | Rain* | Wind** | Luminosity | Snow |
|---|---|---|---|---|---|---|---|
| 1778091024 | 10.56° C | 84% | 1035 hPa | 0 mm | - | - | - |
| 1778090425 | 10.56° C | 84% | 1034.8 hPa | 0 mm | - | - | - |
| 1778089829 | 10.56° C | 84% | 1034.7 hPa | 0 mm | - | - | - |
| 1778089224 | 10.56° C | 83% | 1034.6 hPa | 0 mm | - | - | - |
| 1778088624 | 10.56° C | 83% | 1034.4 hPa | 0 mm | - | - | - |
| 1778088023 | 10.56° C | 84% | 1034.2 hPa | 0 mm | - | - | - |
| 1778087423 | 10.56° C | 84% | 1034.1 hPa | 0 mm | - | - | - |
| 1778086824 | 10.56° C | 84% | 1033.8 hPa | 0 mm | - | - | - |
| 1778086223 | 11.11° C | 83% | 1033.9 hPa | 0 mm | - | - | - |
| 1778085624 | 11.11° C | 83% | 1034.1 hPa | 0 mm | - | - | - |
| 1778085023 | 11.11° C | 84% | 1034.1 hPa | 0 mm | - | - | - |
| 1778084424 | 11.67° C | 84% | 1033.9 hPa | 1.27 mm | - | - | - |
| 1778083823 | 11.67° C | 85% | 1033.9 hPa | 1.27 mm | - | - | - |
| 1778083224 | 11.67° C | 88% | 1033.9 hPa | 1.27 mm | - | - | - |
| 1778082623 | 11.67° C | 88% | 1033.8 hPa | 1.27 mm | - | - | - |
| 1778082023 | 11.67° C | 88% | 1033.8 hPa | 1.27 mm | - | - | - |
| 1778081424 | 12.22° C | 81% | 1033.6 hPa | 1.27 mm | - | - | - |
| 1778080822 | 13.33° C | 68% | 1033.3 hPa | 0 mm | - | - | - |
| 1778080223 | 17.22° C | 62% | 1032.3 hPa | 0 mm | - | - | - |
| 1778079623 | 18.33° C | 55% | 1031.7 hPa | 0 mm | - | - | - |
| 1778079023 | 17.78° C | 60% | 1031.5 hPa | 0 mm | - | - | - |
| 1778078423 | 17.78° C | 60% | 1031.5 hPa | 0 mm | - | - | - |
| 1778077824 | 16.67° C | 69% | 1031.5 hPa | 0 mm | - | - | - |
| 1778077223 | 16.11° C | 71% | 1031.6 hPa | 0 mm | - | - | - |
| 1778076623 | 15.56° C | 70% | 1031.5 hPa | 0 mm | - | - | - |
* Rain latest hour (hover to see other rain measurements)
** Current wind speed in m/s (hover to see current wind gust speed)